sensor_id;sensor_type;location;lat;lon;timestamp;P1;durP1;ratioP1;P2;durP2;ratioP2
19189;SDS011;9727;50.200;19.038;2023-09-19T00:01:27;14.02;;;11.75;;
19189;SDS011;9727;50.200;19.038;2023-09-19T00:03:57;13.25;;;11.32;;
19189;SDS011;9727;50.200;19.038;2023-09-19T00:06:23;13.77;;;12.02;;
19189;SDS011;9727;50.200;19.038;2023-09-19T00:08:51;15.23;;;12.07;;
19189;SDS011;9727;50.200;19.038;2023-09-19T00:11:18;14.88;;;11.65;;
19189;SDS011;9727;50.200;19.038;2023-09-19T00:13:47;16.42;;;12.00;;
19189;SDS011;9727;50.200;19.038;2023-09-19T00:16:15;12.80;;;11.40;;
19189;SDS011;9727;50.200;19.038;2023-09-19T00:18:44;14.25;;;10.80;;
19189;SDS011;9727;50.200;19.038;2023-09-19T00:21:12;13.88;;;11.20;;
19189;SDS011;9727;50.200;19.038;2023-09-19T00:23:38;15.13;;;11.27;;
19189;SDS011;9727;50.200;19.038;2023-09-19T00:26:07;14.23;;;11.52;;
19189;SDS011;9727;50.200;19.038;2023-09-19T00:28:33;12.57;;;11.00;;
19189;SDS011;9727;50.200;19.038;2023-09-19T00:31:00;14.65;;;11.27;;
19189;SDS011;9727;50.200;19.038;2023-09-19T00:33:27;13.50;;;11.00;;
19189;SDS011;9727;50.200;19.038;2023-09-19T00:35:56;15.00;;;11.70;;
19189;SDS011;9727;50.200;19.038;2023-09-19T00:38:24;14.15;;;11.80;;
19189;SDS011;9727;50.200;19.038;2023-09-19T00:40:52;16.30;;;11.80;;
19189;SDS011;9727;50.200;19.038;2023-09-19T00:43:19;16.25;;;11.82;;
19189;SDS011;9727;50.200;19.038;2023-09-19T00:45:46;12.93;;;11.27;;
19189;SDS011;9727;50.200;19.038;2023-09-19T00:48:14;12.18;;;10.82;;
19189;SDS011;9727;50.200;19.038;2023-09-19T00:50:41;13.75;;;11.73;;
19189;SDS011;9727;50.200;19.038;2023-09-19T00:53:09;15.95;;;11.82;;
19189;SDS011;9727;50.200;19.038;2023-09-19T00:55:39;17.08;;;11.77;;
19189;SDS011;9727;50.200;19.038;2023-09-19T00:58:07;13.30;;;11.20;;
19189;SDS011;9727;50.200;19.038;2023-09-19T01:00:35;14.55;;;11.50;;
19189;SDS011;9727;50.200;19.038;2023-09-19T01:03:03;13.00;;;11.60;;
19189;SDS011;9727;50.200;19.038;2023-09-19T01:05:33;13.60;;;10.60;;
19189;SDS011;9727;50.200;19.038;2023-09-19T01:07:59;14.52;;;11.13;;
19189;SDS011;9727;50.200;19.038;2023-09-19T01:10:26;13.95;;;11.15;;
19189;SDS011;9727;50.200;19.038;2023-09-19T01:12:57;13.95;;;10.98;;
19189;SDS011;9727;50.200;19.038;2023-09-19T01:15:28;13.10;;;11.10;;
19189;SDS011;9727;50.200;19.038;2023-09-19T01:18:00;15.13;;;11.55;;
19189;SDS011;9727;50.200;19.038;2023-09-19T01:20:31;13.30;;;11.10;;
19189;SDS011;9727;50.200;19.038;2023-09-19T01:23:04;14.02;;;11.05;;
19189;SDS011;9727;50.200;19.038;2023-09-19T01:28:24;13.32;;;10.82;;
19189;SDS011;9727;50.200;19.038;2023-09-19T01:30:56;12.82;;;10.95;;
19189;SDS011;9727;50.200;19.038;2023-09-19T01:33:24;14.40;;;11.15;;
19189;SDS011;9727;50.200;19.038;2023-09-19T01:35:51;12.48;;;10.80;;
19189;SDS011;9727;50.200;19.038;2023-09-19T01:38:17;13.45;;;11.52;;
19189;SDS011;9727;50.200;19.038;2023-09-19T01:40:46;14.50;;;11.52;;
19189;SDS011;9727;50.200;19.038;2023-09-19T01:43:17;13.65;;;11.13;;
19189;SDS011;9727;50.200;19.038;2023-09-19T01:45:49;15.15;;;12.23;;
19189;SDS011;9727;50.200;19.038;2023-09-19T01:48:21;13.18;;;10.80;;
19189;SDS011;9727;50.200;19.038;2023-09-19T01:50:53;15.60;;;11.98;;
19189;SDS011;9727;50.200;19.038;2023-09-19T01:53:22;14.50;;;11.50;;
19189;SDS011;9727;50.200;19.038;2023-09-19T01:55:50;13.02;;;11.25;;
19189;SDS011;9727;50.200;19.038;2023-09-19T01:58:17;14.88;;;11.38;;
19189;SDS011;9727;50.200;19.038;2023-09-19T02:00:47;13.60;;;11.65;;
19189;SDS011;9727;50.200;19.038;2023-09-19T02:03:16;12.38;;;11.10;;
19189;SDS011;9727;50.200;19.038;2023-09-19T02:05:49;15.70;;;11.75;;
19189;SDS011;9727;50.200;19.038;2023-09-19T02:08:16;12.75;;;11.32;;
19189;SDS011;9727;50.200;19.038;2023-09-19T02:10:43;15.10;;;12.15;;
19189;SDS011;9727;50.200;19.038;2023-09-19T02:13:14;18.13;;;12.27;;
19189;SDS011;9727;50.200;19.038;2023-09-19T02:15:42;15.43;;;11.43;;
19189;SDS011;9727;50.200;19.038;2023-09-19T02:18:09;14.90;;;12.45;;
19189;SDS011;9727;50.200;19.038;2023-09-19T02:20:37;13.27;;;11.65;;
19189;SDS011;9727;50.200;19.038;2023-09-19T02:23:05;12.70;;;11.27;;
19189;SDS011;9727;50.200;19.038;2023-09-19T02:25:33;17.55;;;12.70;;
19189;SDS011;9727;50.200;19.038;2023-09-19T02:28:00;13.98;;;12.48;;
19189;SDS011;9727;50.200;19.038;2023-09-19T02:30:29;16.65;;;12.68;;
19189;SDS011;9727;50.200;19.038;2023-09-19T02:32:55;15.60;;;12.68;;
19189;SDS011;9727;50.200;19.038;2023-09-19T02:35:22;14.38;;;12.88;;
19189;SDS011;9727;50.200;19.038;2023-09-19T02:37:51;17.25;;;12.50;;
19189;SDS011;9727;50.200;19.038;2023-09-19T02:40:20;16.10;;;12.60;;
19189;SDS011;9727;50.200;19.038;2023-09-19T02:42:47;16.40;;;13.10;;
19189;SDS011;9727;50.200;19.038;2023-09-19T02:45:14;16.38;;;13.63;;
19189;SDS011;9727;50.200;19.038;2023-09-19T02:47:42;15.18;;;13.02;;
19189;SDS011;9727;50.200;19.038;2023-09-19T02:50:09;14.55;;;12.38;;
19189;SDS011;9727;50.200;19.038;2023-09-19T02:52:37;16.25;;;12.77;;
19189;SDS011;9727;50.200;19.038;2023-09-19T02:55:04;16.17;;;11.85;;
19189;SDS011;9727;50.200;19.038;2023-09-19T02:57:34;16.10;;;12.50;;
19189;SDS011;9727;50.200;19.038;2023-09-19T03:00:03;14.50;;;12.70;;
19189;SDS011;9727;50.200;19.038;2023-09-19T03:02:30;14.43;;;11.90;;
19189;SDS011;9727;50.200;19.038;2023-09-19T03:05:00;13.85;;;12.25;;
19189;SDS011;9727;50.200;19.038;2023-09-19T03:07:28;16.92;;;12.35;;
19189;SDS011;9727;50.200;19.038;2023-09-19T03:09:54;17.20;;;13.38;;
19189;SDS011;9727;50.200;19.038;2023-09-19T03:12:21;15.95;;;13.13;;
19189;SDS011;9727;50.200;19.038;2023-09-19T03:14:49;15.02;;;13.48;;
19189;SDS011;9727;50.200;19.038;2023-09-19T03:17:16;18.85;;;14.38;;
19189;SDS011;9727;50.200;19.038;2023-09-19T03:19:44;18.60;;;14.40;;
19189;SDS011;9727;50.200;19.038;2023-09-19T03:22:12;18.77;;;14.95;;
19189;SDS011;9727;50.200;19.038;2023-09-19T03:24:39;17.98;;;15.35;;
19189;SDS011;9727;50.200;19.038;2023-09-19T03:27:08;20.80;;;15.80;;
19189;SDS011;9727;50.200;19.038;2023-09-19T03:29:35;20.35;;;15.98;;
19189;SDS011;9727;50.200;19.038;2023-09-19T03:32:05;22.33;;;16.80;;
19189;SDS011;9727;50.200;19.038;2023-09-19T03:34:33;20.77;;;16.30;;
19189;SDS011;9727;50.200;19.038;2023-09-19T03:36:59;22.13;;;17.35;;
19189;SDS011;9727;50.200;19.038;2023-09-19T03:39:26;23.45;;;17.55;;
19189;SDS011;9727;50.200;19.038;2023-09-19T03:41:52;21.23;;;18.15;;
19189;SDS011;9727;50.200;19.038;2023-09-19T03:44:19;22.23;;;19.10;;
19189;SDS011;9727;50.200;19.038;2023-09-19T03:46:45;22.88;;;19.33;;
19189;SDS011;9727;50.200;19.038;2023-09-19T03:49:13;23.85;;;19.27;;
19189;SDS011;9727;50.200;19.038;2023-09-19T03:51:40;23.73;;;20.08;;
19189;SDS011;9727;50.200;19.038;2023-09-19T03:54:07;24.67;;;20.88;;
19189;SDS011;9727;50.200;19.038;2023-09-19T03:56:33;27.80;;;21.52;;
19189;SDS011;9727;50.200;19.038;2023-09-19T03:59:00;23.75;;;20.40;;
19189;SDS011;9727;50.200;19.038;2023-09-19T04:01:26;25.33;;;20.55;;
19189;SDS011;9727;50.200;19.038;2023-09-19T04:03:55;24.83;;;21.73;;
19189;SDS011;9727;50.200;19.038;2023-09-19T04:06:24;25.08;;;20.08;;
19189;SDS011;9727;50.200;19.038;2023-09-19T04:08:52;24.58;;;21.17;;
19189;SDS011;9727;50.200;19.038;2023-09-19T04:11:19;29.38;;;24.10;;
19189;SDS011;9727;50.200;19.038;2023-09-19T04:13:46;30.65;;;24.30;;
19189;SDS011;9727;50.200;19.038;2023-09-19T04:16:14;28.48;;;24.17;;
19189;SDS011;9727;50.200;19.038;2023-09-19T04:18:40;32.33;;;24.95;;
19189;SDS011;9727;50.200;19.038;2023-09-19T04:21:07;28.98;;;24.00;;
19189;SDS011;9727;50.200;19.038;2023-09-19T04:23:35;33.22;;;25.85;;
19189;SDS011;9727;50.200;19.038;2023-09-19T04:26:05;29.75;;;23.88;;
19189;SDS011;9727;50.200;19.038;2023-09-19T04:28:38;29.13;;;23.83;;
19189;SDS011;9727;50.200;19.038;2023-09-19T04:31:05;30.30;;;24.38;;
19189;SDS011;9727;50.200;19.038;2023-09-19T04:33:33;33.33;;;25.13;;
19189;SDS011;9727;50.200;19.038;2023-09-19T04:36:00;32.00;;;25.98;;
19189;SDS011;9727;50.200;19.038;2023-09-19T04:38:30;32.83;;;26.25;;
19189;SDS011;9727;50.200;19.038;2023-09-19T04:41:01;32.38;;;25.10;;
19189;SDS011;9727;50.200;19.038;2023-09-19T04:43:27;29.92;;;26.15;;
19189;SDS011;9727;50.200;19.038;2023-09-19T04:45:55;34.90;;;26.85;;
19189;SDS011;9727;50.200;19.038;2023-09-19T04:48:22;37.55;;;26.80;;
19189;SDS011;9727;50.200;19.038;2023-09-19T04:50:50;32.90;;;26.67;;
19189;SDS011;9727;50.200;19.038;2023-09-19T04:53:18;35.67;;;27.50;;
19189;SDS011;9727;50.200;19.038;2023-09-19T04:55:49;35.85;;;28.55;;
19189;SDS011;9727;50.200;19.038;2023-09-19T04:58:17;36.08;;;28.77;;
19189;SDS011;9727;50.200;19.038;2023-09-19T05:00:45;37.45;;;28.38;;
19189;SDS011;9727;50.200;19.038;2023-09-19T05:03:11;36.05;;;29.58;;
19189;SDS011;9727;50.200;19.038;2023-09-19T05:05:38;34.55;;;27.67;;
19189;SDS011;9727;50.200;19.038;2023-09-19T05:08:06;30.83;;;26.05;;
19189;SDS011;9727;50.200;19.038;2023-09-19T05:10:34;32.17;;;27.05;;
19189;SDS011;9727;50.200;19.038;2023-09-19T05:13:03;36.22;;;25.75;;
19189;SDS011;9727;50.200;19.038;2023-09-19T05:15:34;28.63;;;24.25;;
19189;SDS011;9727;50.200;19.038;2023-09-19T05:18:04;32.67;;;25.05;;
19189;SDS011;9727;50.200;19.038;2023-09-19T05:20:33;32.30;;;25.10;;
19189;SDS011;9727;50.200;19.038;2023-09-19T05:23:03;34.53;;;25.52;;
19189;SDS011;9727;50.200;19.038;2023-09-19T05:25:35;34.35;;;27.75;;
19189;SDS011;9727;50.200;19.038;2023-09-19T05:28:08;34.65;;;27.58;;
19189;SDS011;9727;50.200;19.038;2023-09-19T05:30:39;35.50;;;28.65;;
19189;SDS011;9727;50.200;19.038;2023-09-19T05:33:06;35.00;;;26.95;;
19189;SDS011;9727;50.200;19.038;2023-09-19T05:35:33;31.05;;;24.65;;
19189;SDS011;9727;50.200;19.038;2023-09-19T05:38:03;32.55;;;27.05;;
19189;SDS011;9727;50.200;19.038;2023-09-19T05:40:30;33.05;;;24.98;;
19189;SDS011;9727;50.200;19.038;2023-09-19T05:43:04;39.70;;;24.95;;
19189;SDS011;9727;50.200;19.038;2023-09-19T05:45:32;29.00;;;25.13;;
19189;SDS011;9727;50.200;19.038;2023-09-19T05:48:11;34.40;;;26.17;;
19189;SDS011;9727;50.200;19.038;2023-09-19T05:50:38;34.90;;;26.50;;
19189;SDS011;9727;50.200;19.038;2023-09-19T05:53:08;36.15;;;25.73;;
19189;SDS011;9727;50.200;19.038;2023-09-19T05:55:40;38.53;;;27.30;;
19189;SDS011;9727;50.200;19.038;2023-09-19T05:58:10;31.13;;;24.83;;
19189;SDS011;9727;50.200;19.038;2023-09-19T06:00:39;34.83;;;26.67;;
19189;SDS011;9727;50.200;19.038;2023-09-19T06:03:06;32.97;;;26.23;;
19189;SDS011;9727;50.200;19.038;2023-09-19T06:05:35;33.22;;;26.48;;
19189;SDS011;9727;50.200;19.038;2023-09-19T06:08:05;31.63;;;24.70;;
19189;SDS011;9727;50.200;19.038;2023-09-19T06:10:37;31.08;;;26.33;;
19189;SDS011;9727;50.200;19.038;2023-09-19T06:13:04;32.33;;;25.42;;
19189;SDS011;9727;50.200;19.038;2023-09-19T06:15:33;30.20;;;24.40;;
19189;SDS011;9727;50.200;19.038;2023-09-19T06:18:01;36.60;;;24.85;;
19189;SDS011;9727;50.200;19.038;2023-09-19T06:20:30;29.48;;;24.27;;
19189;SDS011;9727;50.200;19.038;2023-09-19T06:23:00;33.22;;;23.65;;
19189;SDS011;9727;50.200;19.038;2023-09-19T06:25:27;32.10;;;24.17;;
19189;SDS011;9727;50.200;19.038;2023-09-19T06:27:54;29.45;;;23.58;;
19189;SDS011;9727;50.200;19.038;2023-09-19T06:30:21;31.38;;;23.58;;
19189;SDS011;9727;50.200;19.038;2023-09-19T06:32:49;28.08;;;21.60;;
19189;SDS011;9727;50.200;19.038;2023-09-19T06:35:15;27.55;;;22.60;;
19189;SDS011;9727;50.200;19.038;2023-09-19T06:37:42;28.23;;;22.55;;
19189;SDS011;9727;50.200;19.038;2023-09-19T06:40:11;27.23;;;22.10;;
19189;SDS011;9727;50.200;19.038;2023-09-19T06:42:39;25.73;;;21.38;;
19189;SDS011;9727;50.200;19.038;2023-09-19T06:45:07;25.67;;;20.63;;
19189;SDS011;9727;50.200;19.038;2023-09-19T06:47:38;25.63;;;19.08;;
19189;SDS011;9727;50.200;19.038;2023-09-19T06:50:05;31.23;;;21.30;;
19189;SDS011;9727;50.200;19.038;2023-09-19T06:52:34;26.13;;;19.33;;
19189;SDS011;9727;50.200;19.038;2023-09-19T06:55:03;23.58;;;18.75;;
19189;SDS011;9727;50.200;19.038;2023-09-19T06:57:34;22.60;;;17.48;;
19189;SDS011;9727;50.200;19.038;2023-09-19T07:00:01;21.67;;;17.85;;
19189;SDS011;9727;50.200;19.038;2023-09-19T07:02:35;20.15;;;16.92;;
19189;SDS011;9727;50.200;19.038;2023-09-19T07:05:06;19.88;;;14.35;;
19189;SDS011;9727;50.200;19.038;2023-09-19T07:07:33;19.08;;;14.98;;
19189;SDS011;9727;50.200;19.038;2023-09-19T07:10:00;18.42;;;13.85;;
19189;SDS011;9727;50.200;19.038;2023-09-19T07:12:27;16.95;;;11.98;;
19189;SDS011;9727;50.200;19.038;2023-09-19T07:14:55;15.20;;;11.02;;
19189;SDS011;9727;50.200;19.038;2023-09-19T07:17:22;15.18;;;11.07;;
19189;SDS011;9727;50.200;19.038;2023-09-19T07:19:49;13.43;;;10.48;;
19189;SDS011;9727;50.200;19.038;2023-09-19T07:22:15;18.30;;;11.55;;
19189;SDS011;9727;50.200;19.038;2023-09-19T07:24:42;15.10;;;10.50;;
19189;SDS011;9727;50.200;19.038;2023-09-19T07:27:09;14.10;;;10.15;;
19189;SDS011;9727;50.200;19.038;2023-09-19T07:29:35;11.38;;;10.15;;
19189;SDS011;9727;50.200;19.038;2023-09-19T07:32:05;15.82;;;10.70;;
19189;SDS011;9727;50.200;19.038;2023-09-19T07:34:35;12.27;;;9.88;;
19189;SDS011;9727;50.200;19.038;2023-09-19T07:37:05;14.50;;;10.35;;
19189;SDS011;9727;50.200;19.038;2023-09-19T07:39:35;15.43;;;9.93;;
19189;SDS011;9727;50.200;19.038;2023-09-19T07:42:06;12.27;;;7.72;;
19189;SDS011;9727;50.200;19.038;2023-09-19T07:44:34;10.13;;;7.32;;
19189;SDS011;9727;50.200;19.038;2023-09-19T07:47:05;10.35;;;6.90;;
19189;SDS011;9727;50.200;19.038;2023-09-19T07:49:33;11.65;;;7.05;;
19189;SDS011;9727;50.200;19.038;2023-09-19T07:52:00;8.48;;;5.35;;
19189;SDS011;9727;50.200;19.038;2023-09-19T07:54:27;8.43;;;5.57;;
19189;SDS011;9727;50.200;19.038;2023-09-19T07:57:00;8.85;;;5.20;;
19189;SDS011;9727;50.200;19.038;2023-09-19T07:59:27;8.55;;;5.43;;
19189;SDS011;9727;50.200;19.038;2023-09-19T08:01:54;10.38;;;5.22;;
19189;SDS011;9727;50.200;19.038;2023-09-19T08:04:22;7.53;;;5.00;;
19189;SDS011;9727;50.200;19.038;2023-09-19T08:06:51;9.55;;;5.38;;
19189;SDS011;9727;50.200;19.038;2023-09-19T08:09:18;8.63;;;5.53;;
19189;SDS011;9727;50.200;19.038;2023-09-19T08:11:46;9.52;;;6.03;;
19189;SDS011;9727;50.200;19.038;2023-09-19T08:14:13;9.30;;;5.93;;
19189;SDS011;9727;50.200;19.038;2023-09-19T08:16:40;10.38;;;6.00;;
19189;SDS011;9727;50.200;19.038;2023-09-19T08:19:08;8.63;;;5.80;;
19189;SDS011;9727;50.200;19.038;2023-09-19T08:21:41;10.50;;;5.72;;
19189;SDS011;9727;50.200;19.038;2023-09-19T08:24:11;8.73;;;6.00;;
19189;SDS011;9727;50.200;19.038;2023-09-19T08:26:37;10.25;;;6.65;;
19189;SDS011;9727;50.200;19.038;2023-09-19T08:29:05;12.43;;;6.45;;
19189;SDS011;9727;50.200;19.038;2023-09-19T08:31:33;9.30;;;6.03;;
19189;SDS011;9727;50.200;19.038;2023-09-19T08:34:01;7.65;;;5.57;;
19189;SDS011;9727;50.200;19.038;2023-09-19T08:36:28;12.05;;;6.22;;
19189;SDS011;9727;50.200;19.038;2023-09-19T08:38:57;9.57;;;6.35;;
19189;SDS011;9727;50.200;19.038;2023-09-19T08:41:24;7.63;;;6.18;;
19189;SDS011;9727;50.200;19.038;2023-09-19T08:44:08;10.48;;;5.82;;
19189;SDS011;9727;50.200;19.038;2023-09-19T08:46:41;9.98;;;6.57;;
19189;SDS011;9727;50.200;19.038;2023-09-19T08:49:10;7.47;;;5.82;;
19189;SDS011;9727;50.200;19.038;2023-09-19T08:51:41;9.13;;;6.80;;
19189;SDS011;9727;50.200;19.038;2023-09-19T08:54:20;6.80;;;6.10;;
19189;SDS011;9727;50.200;19.038;2023-09-19T08:56:51;7.03;;;6.15;;
19189;SDS011;9727;50.200;19.038;2023-09-19T08:59:20;7.43;;;5.47;;
19189;SDS011;9727;50.200;19.038;2023-09-19T09:01:49;10.13;;;6.60;;
19189;SDS011;9727;50.200;19.038;2023-09-19T09:04:18;10.07;;;6.78;;
19189;SDS011;9727;50.200;19.038;2023-09-19T09:06:45;9.82;;;6.35;;
19189;SDS011;9727;50.200;19.038;2023-09-19T09:09:15;8.20;;;6.18;;
19189;SDS011;9727;50.200;19.038;2023-09-19T09:11:41;11.75;;;5.97;;
19189;SDS011;9727;50.200;19.038;2023-09-19T09:14:08;6.10;;;5.50;;
19189;SDS011;9727;50.200;19.038;2023-09-19T09:16:38;9.57;;;6.35;;
19189;SDS011;9727;50.200;19.038;2023-09-19T09:19:05;11.38;;;6.30;;
19189;SDS011;9727;50.200;19.038;2023-09-19T09:21:35;8.35;;;5.35;;
19189;SDS011;9727;50.200;19.038;2023-09-19T09:26:48;9.32;;;5.90;;
19189;SDS011;9727;50.200;19.038;2023-09-19T09:29:15;9.88;;;5.70;;
19189;SDS011;9727;50.200;19.038;2023-09-19T09:31:43;6.05;;;5.32;;
19189;SDS011;9727;50.200;19.038;2023-09-19T09:34:10;7.40;;;5.47;;
19189;SDS011;9727;50.200;19.038;2023-09-19T09:36:39;7.57;;;5.43;;
19189;SDS011;9727;50.200;19.038;2023-09-19T09:39:07;7.78;;;5.40;;
19189;SDS011;9727;50.200;19.038;2023-09-19T09:41:43;6.75;;;5.20;;
19189;SDS011;9727;50.200;19.038;2023-09-19T09:44:15;9.13;;;5.10;;
19189;SDS011;9727;50.200;19.038;2023-09-19T09:46:45;6.75;;;5.20;;
19189;SDS011;9727;50.200;19.038;2023-09-19T09:49:43;6.72;;;5.22;;
19189;SDS011;9727;50.200;19.038;2023-09-19T09:52:19;9.82;;;5.47;;
19189;SDS011;9727;50.200;19.038;2023-09-19T09:54:58;7.20;;;5.28;;
19189;SDS011;9727;50.200;19.038;2023-09-19T09:57:25;8.57;;;5.78;;
19189;SDS011;9727;50.200;19.038;2023-09-19T09:59:53;7.10;;;5.45;;
19189;SDS011;9727;50.200;19.038;2023-09-19T10:02:21;7.90;;;5.90;;
19189;SDS011;9727;50.200;19.038;2023-09-19T10:04:54;8.52;;;5.95;;
19189;SDS011;9727;50.200;19.038;2023-09-19T10:07:33;8.57;;;5.60;;
19189;SDS011;9727;50.200;19.038;2023-09-19T10:10:06;7.63;;;5.50;;
19189;SDS011;9727;50.200;19.038;2023-09-19T10:12:45;9.68;;;5.72;;
19189;SDS011;9727;50.200;19.038;2023-09-19T10:15:15;7.93;;;5.60;;
19189;SDS011;9727;50.200;19.038;2023-09-19T10:17:48;9.02;;;5.75;;
19189;SDS011;9727;50.200;19.038;2023-09-19T10:20:16;7.70;;;5.43;;
19189;SDS011;9727;50.200;19.038;2023-09-19T10:23:04;6.47;;;5.10;;
19189;SDS011;9727;50.200;19.038;2023-09-19T10:25:34;6.13;;;5.28;;
19189;SDS011;9727;50.200;19.038;2023-09-19T10:28:05;7.43;;;5.40;;
19189;SDS011;9727;50.200;19.038;2023-09-19T10:30:40;9.00;;;5.72;;
19189;SDS011;9727;50.200;19.038;2023-09-19T10:33:10;8.15;;;6.50;;
19189;SDS011;9727;50.200;19.038;2023-09-19T10:35:38;12.10;;;6.47;;
19189;SDS011;9727;50.200;19.038;2023-09-19T10:38:10;13.13;;;6.68;;
19189;SDS011;9727;50.200;19.038;2023-09-19T10:40:40;7.10;;;5.70;;
19189;SDS011;9727;50.200;19.038;2023-09-19T10:43:11;9.57;;;6.15;;
19189;SDS011;9727;50.200;19.038;2023-09-19T10:45:42;9.93;;;6.22;;
19189;SDS011;9727;50.200;19.038;2023-09-19T10:48:10;12.77;;;6.28;;
19189;SDS011;9727;50.200;19.038;2023-09-19T10:50:43;8.98;;;6.00;;
19189;SDS011;9727;50.200;19.038;2023-09-19T10:53:12;8.15;;;5.50;;
19189;SDS011;9727;50.200;19.038;2023-09-19T10:55:40;11.45;;;6.43;;
19189;SDS011;9727;50.200;19.038;2023-09-19T10:58:08;8.30;;;6.43;;
19189;SDS011;9727;50.200;19.038;2023-09-19T11:00:52;7.72;;;5.70;;
19189;SDS011;9727;50.200;19.038;2023-09-19T11:03:19;7.18;;;5.50;;
19189;SDS011;9727;50.200;19.038;2023-09-19T11:06:04;18.80;;;6.32;;
19189;SDS011;9727;50.200;19.038;2023-09-19T11:08:56;15.57;;;6.95;;
19189;SDS011;9727;50.200;19.038;2023-09-19T11:11:39;10.10;;;5.93;;
19189;SDS011;9727;50.200;19.038;2023-09-19T11:14:15;6.35;;;5.40;;
19189;SDS011;9727;50.200;19.038;2023-09-19T11:19:27;10.18;;;6.40;;
19189;SDS011;9727;50.200;19.038;2023-09-19T11:22:14;8.25;;;6.25;;
19189;SDS011;9727;50.200;19.038;2023-09-19T11:24:41;7.28;;;5.47;;
19189;SDS011;9727;50.200;19.038;2023-09-19T11:27:14;7.95;;;5.50;;
19189;SDS011;9727;50.200;19.038;2023-09-19T11:29:42;9.90;;;5.40;;
19189;SDS011;9727;50.200;19.038;2023-09-19T11:32:10;7.45;;;5.97;;
19189;SDS011;9727;50.200;19.038;2023-09-19T11:40:06;7.25;;;5.40;;
19189;SDS011;9727;50.200;19.038;2023-09-19T11:42:41;6.55;;;5.10;;
19189;SDS011;9727;50.200;19.038;2023-09-19T11:45:08;9.75;;;5.25;;
19189;SDS011;9727;50.200;19.038;2023-09-19T11:47:55;8.45;;;5.60;;
19189;SDS011;9727;50.200;19.038;2023-09-19T11:50:22;8.88;;;5.18;;
19189;SDS011;9727;50.200;19.038;2023-09-19T11:52:50;6.45;;;4.97;;
19189;SDS011;9727;50.200;19.038;2023-09-19T11:55:18;9.18;;;5.43;;
19189;SDS011;9727;50.200;19.038;2023-09-19T11:57:46;14.32;;;5.70;;
19189;SDS011;9727;50.200;19.038;2023-09-19T12:00:17;8.20;;;5.45;;
19189;SDS011;9727;50.200;19.038;2023-09-19T12:02:45;7.80;;;5.60;;
19189;SDS011;9727;50.200;19.038;2023-09-19T12:05:13;10.10;;;5.45;;
19189;SDS011;9727;50.200;19.038;2023-09-19T12:07:43;8.82;;;5.55;;
19189;SDS011;9727;50.200;19.038;2023-09-19T12:10:12;8.93;;;5.22;;
19189;SDS011;9727;50.200;19.038;2023-09-19T12:12:47;6.10;;;5.13;;
19189;SDS011;9727;50.200;19.038;2023-09-19T12:15:14;8.45;;;5.28;;
19189;SDS011;9727;50.200;19.038;2023-09-19T12:17:41;6.25;;;5.43;;
19189;SDS011;9727;50.200;19.038;2023-09-19T12:20:11;7.10;;;5.15;;
19189;SDS011;9727;50.200;19.038;2023-09-19T12:22:39;7.20;;;5.20;;
19189;SDS011;9727;50.200;19.038;2023-09-19T12:25:06;9.18;;;5.28;;
19189;SDS011;9727;50.200;19.038;2023-09-19T12:27:41;5.03;;;4.45;;
19189;SDS011;9727;50.200;19.038;2023-09-19T12:30:10;5.85;;;4.80;;
19189;SDS011;9727;50.200;19.038;2023-09-19T12:32:39;9.15;;;5.03;;
19189;SDS011;9727;50.200;19.038;2023-09-19T12:35:07;5.60;;;4.70;;
19189;SDS011;9727;50.200;19.038;2023-09-19T12:37:42;8.85;;;5.30;;
19189;SDS011;9727;50.200;19.038;2023-09-19T12:40:11;12.40;;;6.38;;
19189;SDS011;9727;50.200;19.038;2023-09-19T12:42:42;11.35;;;7.30;;
19189;SDS011;9727;50.200;19.038;2023-09-19T12:45:11;7.00;;;5.93;;
19189;SDS011;9727;50.200;19.038;2023-09-19T12:47:39;9.82;;;5.40;;
19189;SDS011;9727;50.200;19.038;2023-09-19T12:50:09;8.57;;;5.30;;
19189;SDS011;9727;50.200;19.038;2023-09-19T12:52:40;8.30;;;5.53;;
19189;SDS011;9727;50.200;19.038;2023-09-19T12:55:07;6.32;;;5.25;;
19189;SDS011;9727;50.200;19.038;2023-09-19T12:57:40;6.07;;;4.65;;
19189;SDS011;9727;50.200;19.038;2023-09-19T13:00:09;9.25;;;5.22;;
19189;SDS011;9727;50.200;19.038;2023-09-19T13:02:43;6.50;;;5.10;;
19189;SDS011;9727;50.200;19.038;2023-09-19T13:08:17;9.70;;;5.03;;
19189;SDS011;9727;50.200;19.038;2023-09-19T13:10:59;5.40;;;4.80;;
19189;SDS011;9727;50.200;19.038;2023-09-19T13:13:26;5.13;;;4.45;;
19189;SDS011;9727;50.200;19.038;2023-09-19T13:15:53;7.80;;;4.88;;
19189;SDS011;9727;50.200;19.038;2023-09-19T13:18:21;5.70;;;5.05;;
19189;SDS011;9727;50.200;19.038;2023-09-19T13:23:30;4.70;;;4.13;;
19189;SDS011;9727;50.200;19.038;2023-09-19T13:25:58;6.18;;;4.85;;
19189;SDS011;9727;50.200;19.038;2023-09-19T13:28:25;6.18;;;4.30;;
19189;SDS011;9727;50.200;19.038;2023-09-19T13:30:53;6.53;;;4.22;;
19189;SDS011;9727;50.200;19.038;2023-09-19T13:33:19;7.70;;;4.88;;
19189;SDS011;9727;50.200;19.038;2023-09-19T13:35:47;4.78;;;4.30;;
19189;SDS011;9727;50.200;19.038;2023-09-19T13:38:14;5.05;;;3.92;;
19189;SDS011;9727;50.200;19.038;2023-09-19T13:40:41;4.22;;;3.80;;
19189;SDS011;9727;50.200;19.038;2023-09-19T13:43:08;5.05;;;4.10;;
19189;SDS011;9727;50.200;19.038;2023-09-19T13:45:34;5.63;;;3.88;;
19189;SDS011;9727;50.200;19.038;2023-09-19T13:48:02;4.90;;;3.97;;
19189;SDS011;9727;50.200;19.038;2023-09-19T13:50:28;6.68;;;4.30;;
19189;SDS011;9727;50.200;19.038;2023-09-19T13:52:59;6.55;;;3.88;;
19189;SDS011;9727;50.200;19.038;2023-09-19T13:55:25;8.35;;;3.70;;
19189;SDS011;9727;50.200;19.038;2023-09-19T13:57:52;4.00;;;3.60;;
19189;SDS011;9727;50.200;19.038;2023-09-19T14:00:20;9.95;;;3.90;;
19189;SDS011;9727;50.200;19.038;2023-09-19T14:02:47;4.10;;;3.70;;
19189;SDS011;9727;50.200;19.038;2023-09-19T14:05:14;5.45;;;3.80;;
19189;SDS011;9727;50.200;19.038;2023-09-19T14:07:41;6.90;;;3.67;;
19189;SDS011;9727;50.200;19.038;2023-09-19T14:10:10;4.72;;;3.65;;
19189;SDS011;9727;50.200;19.038;2023-09-19T14:12:38;6.07;;;3.25;;
19189;SDS011;9727;50.200;19.038;2023-09-19T14:15:06;5.10;;;3.53;;
19189;SDS011;9727;50.200;19.038;2023-09-19T14:17:39;6.43;;;4.13;;
19189;SDS011;9727;50.200;19.038;2023-09-19T14:20:07;5.10;;;3.80;;
19189;SDS011;9727;50.200;19.038;2023-09-19T14:22:35;5.93;;;4.13;;
19189;SDS011;9727;50.200;19.038;2023-09-19T14:25:04;5.03;;;4.40;;
19189;SDS011;9727;50.200;19.038;2023-09-19T14:27:35;4.65;;;3.70;;
19189;SDS011;9727;50.200;19.038;2023-09-19T14:30:04;4.88;;;4.38;;
19189;SDS011;9727;50.200;19.038;2023-09-19T14:32:34;6.25;;;4.25;;
19189;SDS011;9727;50.200;19.038;2023-09-19T14:35:01;5.45;;;4.28;;
19189;SDS011;9727;50.200;19.038;2023-09-19T14:37:27;8.07;;;4.50;;
19189;SDS011;9727;50.200;19.038;2023-09-19T14:39:54;4.57;;;4.07;;
19189;SDS011;9727;50.200;19.038;2023-09-19T14:42:21;4.43;;;4.03;;
19189;SDS011;9727;50.200;19.038;2023-09-19T14:44:49;6.30;;;3.72;;
19189;SDS011;9727;50.200;19.038;2023-09-19T14:47:15;3.20;;;2.90;;
19189;SDS011;9727;50.200;19.038;2023-09-19T14:49:42;5.53;;;3.20;;
19189;SDS011;9727;50.200;19.038;2023-09-19T14:52:09;3.88;;;3.15;;
19189;SDS011;9727;50.200;19.038;2023-09-19T14:54:40;6.88;;;3.40;;
19189;SDS011;9727;50.200;19.038;2023-09-19T14:57:07;4.63;;;3.67;;
19189;SDS011;9727;50.200;19.038;2023-09-19T14:59:35;5.38;;;3.30;;
19189;SDS011;9727;50.200;19.038;2023-09-19T15:02:05;5.38;;;3.33;;
19189;SDS011;9727;50.200;19.038;2023-09-19T15:04:41;5.82;;;3.10;;